sensor_id;sensor_type;location;lat;lon;timestamp;temperature;humidity
16441;DHT22;8330;-33.858;151.184;2023-07-29T00:00:43;19.10;99.90
16441;DHT22;8330;-33.858;151.184;2023-07-29T00:03:15;19.10;99.90
16441;DHT22;8330;-33.858;151.184;2023-07-29T00:05:46;19.10;99.90
16441;DHT22;8330;-33.858;151.184;2023-07-29T00:08:17;19.10;99.90
16441;DHT22;8330;-33.858;151.184;2023-07-29T00:10:48;19.20;99.90
16441;DHT22;8330;-33.858;151.184;2023-07-29T00:13:19;19.20;99.90
16441;DHT22;8330;-33.858;151.184;2023-07-29T00:15:49;19.30;99.90
16441;DHT22;8330;-33.858;151.184;2023-07-29T00:18:22;19.30;99.90
16441;DHT22;8330;-33.858;151.184;2023-07-29T00:20:53;19.30;99.90
16441;DHT22;8330;-33.858;151.184;2023-07-29T00:23:24;19.20;99.90
16441;DHT22;8330;-33.858;151.184;2023-07-29T00:25:54;19.20;99.90
16441;DHT22;8330;-33.858;151.184;2023-07-29T00:28:25;19.30;99.90
16441;DHT22;8330;-33.858;151.184;2023-07-29T00:30:56;19.50;99.90
16441;DHT22;8330;-33.858;151.184;2023-07-29T00:33:29;19.60;99.90
16441;DHT22;8330;-33.858;151.184;2023-07-29T00:35:59;19.80;99.90
16441;DHT22;8330;-33.858;151.184;2023-07-29T00:38:31;20.00;99.90
16441;DHT22;8330;-33.858;151.184;2023-07-29T00:41:03;20.10;99.90
16441;DHT22;8330;-33.858;151.184;2023-07-29T00:43:34;20.20;99.90
16441;DHT22;8330;-33.858;151.184;2023-07-29T00:46:05;20.40;99.90
16441;DHT22;8330;-33.858;151.184;2023-07-29T00:48:39;20.50;99.90
16441;DHT22;8330;-33.858;151.184;2023-07-29T00:51:10;20.70;99.90
16441;DHT22;8330;-33.858;151.184;2023-07-29T00:53:41;20.80;99.90
16441;DHT22;8330;-33.858;151.184;2023-07-29T00:56:12;21.00;99.90
16441;DHT22;8330;-33.858;151.184;2023-07-29T00:58:43;21.10;99.90
16441;DHT22;8330;-33.858;151.184;2023-07-29T01:01:14;21.30;99.90
16441;DHT22;8330;-33.858;151.184;2023-07-29T01:03:47;21.40;99.90
16441;DHT22;8330;-33.858;151.184;2023-07-29T01:06:26;21.50;99.90
16441;DHT22;8330;-33.858;151.184;2023-07-29T01:09:02;21.50;99.90
16441;DHT22;8330;-33.858;151.184;2023-07-29T01:11:41;21.60;99.90
16441;DHT22;8330;-33.858;151.184;2023-07-29T01:14:19;21.70;99.90
16441;DHT22;8330;-33.858;151.184;2023-07-29T01:16:55;21.80;99.90
16441;DHT22;8330;-33.858;151.184;2023-07-29T01:19:49;21.80;99.90
16441;DHT22;8330;-33.858;151.184;2023-07-29T01:22:26;21.80;99.90
16441;DHT22;8330;-33.858;151.184;2023-07-29T01:25:01;21.80;99.90
16441;DHT22;8330;-33.858;151.184;2023-07-29T01:27:32;21.90;99.90
16441;DHT22;8330;-33.858;151.184;2023-07-29T01:30:04;22.00;99.90
16441;DHT22;8330;-33.858;151.184;2023-07-29T01:32:39;22.10;99.90
16441;DHT22;8330;-33.858;151.184;2023-07-29T01:35:17;22.10;99.90
16441;DHT22;8330;-33.858;151.184;2023-07-29T01:37:52;22.10;99.90
16441;DHT22;8330;-33.858;151.184;2023-07-29T01:40:28;22.10;99.90
16441;DHT22;8330;-33.858;151.184;2023-07-29T01:42:58;22.10;99.90
16441;DHT22;8330;-33.858;151.184;2023-07-29T01:45:30;22.20;99.90
16441;DHT22;8330;-33.858;151.184;2023-07-29T01:48:04;22.40;99.90
16441;DHT22;8330;-33.858;151.184;2023-07-29T01:50:35;22.60;99.90
16441;DHT22;8330;-33.858;151.184;2023-07-29T01:53:06;22.60;99.90
16441;DHT22;8330;-33.858;151.184;2023-07-29T01:55:38;22.80;99.90
16441;DHT22;8330;-33.858;151.184;2023-07-29T01:58:09;22.80;99.90
16441;DHT22;8330;-33.858;151.184;2023-07-29T02:00:42;22.70;99.90
16441;DHT22;8330;-33.858;151.184;2023-07-29T02:03:13;22.60;99.90
16441;DHT22;8330;-33.858;151.184;2023-07-29T02:05:43;22.50;99.90
16441;DHT22;8330;-33.858;151.184;2023-07-29T02:08:14;22.40;99.90
16441;DHT22;8330;-33.858;151.184;2023-07-29T02:10:47;22.40;99.90
16441;DHT22;8330;-33.858;151.184;2023-07-29T02:13:18;22.30;99.90
16441;DHT22;8330;-33.858;151.184;2023-07-29T02:15:49;22.20;99.90
16441;DHT22;8330;-33.858;151.184;2023-07-29T02:18:19;22.20;99.90
16441;DHT22;8330;-33.858;151.184;2023-07-29T02:20:50;22.20;99.90
16441;DHT22;8330;-33.858;151.184;2023-07-29T02:23:21;22.10;99.90
16441;DHT22;8330;-33.858;151.184;2023-07-29T02:25:54;22.10;99.90
16441;DHT22;8330;-33.858;151.184;2023-07-29T02:28:24;22.10;99.90
16441;DHT22;8330;-33.858;151.184;2023-07-29T02:31:09;22.10;99.90
16441;DHT22;8330;-33.858;151.184;2023-07-29T02:33:40;22.40;99.90
16441;DHT22;8330;-33.858;151.184;2023-07-29T02:36:12;22.60;99.90
16441;DHT22;8330;-33.858;151.184;2023-07-29T02:38:44;22.80;99.90
16441;DHT22;8330;-33.858;151.184;2023-07-29T02:41:16;22.90;99.90
16441;DHT22;8330;-33.858;151.184;2023-07-29T02:43:50;23.00;99.90
16441;DHT22;8330;-33.858;151.184;2023-07-29T02:46:21;23.10;99.90
16441;DHT22;8330;-33.858;151.184;2023-07-29T02:48:52;23.20;99.90
16441;DHT22;8330;-33.858;151.184;2023-07-29T02:51:23;23.20;99.90
16441;DHT22;8330;-33.858;151.184;2023-07-29T02:53:54;23.10;99.90
16441;DHT22;8330;-33.858;151.184;2023-07-29T02:56:27;23.20;99.90
16441;DHT22;8330;-33.858;151.184;2023-07-29T02:58:58;23.20;99.90
16441;DHT22;8330;-33.858;151.184;2023-07-29T03:01:29;23.30;99.90
16441;DHT22;8330;-33.858;151.184;2023-07-29T03:04:00;23.30;99.90
16441;DHT22;8330;-33.858;151.184;2023-07-29T03:06:30;23.50;99.90
16441;DHT22;8330;-33.858;151.184;2023-07-29T03:09:03;23.50;99.90
16441;DHT22;8330;-33.858;151.184;2023-07-29T03:11:36;23.40;99.90
16441;DHT22;8330;-33.858;151.184;2023-07-29T03:14:07;23.40;99.90
16441;DHT22;8330;-33.858;151.184;2023-07-29T03:16:38;23.20;99.90
16441;DHT22;8330;-33.858;151.184;2023-07-29T03:19:08;23.00;99.90
16441;DHT22;8330;-33.858;151.184;2023-07-29T03:21:39;23.00;99.90
16441;DHT22;8330;-33.858;151.184;2023-07-29T03:24:10;23.10;99.90
16441;DHT22;8330;-33.858;151.184;2023-07-29T03:26:43;23.00;99.90
16441;DHT22;8330;-33.858;151.184;2023-07-29T03:29:15;23.20;99.90
16441;DHT22;8330;-33.858;151.184;2023-07-29T03:31:46;23.30;99.90
16441;DHT22;8330;-33.858;151.184;2023-07-29T03:34:17;23.40;99.90
16441;DHT22;8330;-33.858;151.184;2023-07-29T03:36:48;23.40;99.90
16441;DHT22;8330;-33.858;151.184;2023-07-29T03:39:19;23.40;99.90
16441;DHT22;8330;-33.858;151.184;2023-07-29T03:41:52;23.30;99.90
16441;DHT22;8330;-33.858;151.184;2023-07-29T03:44:23;23.30;99.90
16441;DHT22;8330;-33.858;151.184;2023-07-29T03:46:55;23.20;99.90
16441;DHT22;8330;-33.858;151.184;2023-07-29T03:49:25;23.00;99.90
16441;DHT22;8330;-33.858;151.184;2023-07-29T03:51:56;22.90;99.90
16441;DHT22;8330;-33.858;151.184;2023-07-29T03:54:27;22.80;99.90
16441;DHT22;8330;-33.858;151.184;2023-07-29T03:56:59;22.80;99.90
16441;DHT22;8330;-33.858;151.184;2023-07-29T03:59:30;22.70;99.90
16441;DHT22;8330;-33.858;151.184;2023-07-29T04:02:01;22.70;99.90
16441;DHT22;8330;-33.858;151.184;2023-07-29T04:04:32;22.70;99.90
16441;DHT22;8330;-33.858;151.184;2023-07-29T04:07:03;22.70;99.90
16441;DHT22;8330;-33.858;151.184;2023-07-29T04:09:34;22.70;99.90
16441;DHT22;8330;-33.858;151.184;2023-07-29T04:12:08;22.80;99.90
16441;DHT22;8330;-33.858;151.184;2023-07-29T04:14:39;22.90;99.90
16441;DHT22;8330;-33.858;151.184;2023-07-29T04:17:11;22.90;99.90
16441;DHT22;8330;-33.858;151.184;2023-07-29T04:19:41;22.80;99.90
16441;DHT22;8330;-33.858;151.184;2023-07-29T04:22:12;22.80;99.90
16441;DHT22;8330;-33.858;151.184;2023-07-29T04:24:43;22.90;99.90
16441;DHT22;8330;-33.858;151.184;2023-07-29T04:27:16;22.80;99.90
16441;DHT22;8330;-33.858;151.184;2023-07-29T04:29:47;22.80;99.90
16441;DHT22;8330;-33.858;151.184;2023-07-29T04:32:17;22.70;99.90
16441;DHT22;8330;-33.858;151.184;2023-07-29T04:34:48;22.70;99.90
16441;DHT22;8330;-33.858;151.184;2023-07-29T04:37:19;22.70;99.90
16441;DHT22;8330;-33.858;151.184;2023-07-29T04:39:50;22.70;99.90
16441;DHT22;8330;-33.858;151.184;2023-07-29T04:42:22;22.60;99.90
16441;DHT22;8330;-33.858;151.184;2023-07-29T04:44:53;22.50;99.90
16441;DHT22;8330;-33.858;151.184;2023-07-29T04:47:24;22.40;99.90
16441;DHT22;8330;-33.858;151.184;2023-07-29T04:49:55;22.30;99.90
16441;DHT22;8330;-33.858;151.184;2023-07-29T04:52:26;22.30;99.90
16441;DHT22;8330;-33.858;151.184;2023-07-29T04:54:58;22.20;99.90
16441;DHT22;8330;-33.858;151.184;2023-07-29T04:57:31;22.20;99.90
16441;DHT22;8330;-33.858;151.184;2023-07-29T05:00:04;22.20;99.90
16441;DHT22;8330;-33.858;151.184;2023-07-29T05:02:35;22.20;99.90
16441;DHT22;8330;-33.858;151.184;2023-07-29T05:05:06;22.20;99.90
16441;DHT22;8330;-33.858;151.184;2023-07-29T05:07:37;22.20;99.90
16441;DHT22;8330;-33.858;151.184;2023-07-29T05:10:09;22.20;99.90
16441;DHT22;8330;-33.858;151.184;2023-07-29T05:12:42;22.10;99.90
16441;DHT22;8330;-33.858;151.184;2023-07-29T05:15:13;22.20;99.90
16441;DHT22;8330;-33.858;151.184;2023-07-29T05:17:46;22.20;99.90
16441;DHT22;8330;-33.858;151.184;2023-07-29T05:20:17;22.20;99.90
16441;DHT22;8330;-33.858;151.184;2023-07-29T05:22:49;22.10;99.90
16441;DHT22;8330;-33.858;151.184;2023-07-29T05:25:20;22.00;99.90
16441;DHT22;8330;-33.858;151.184;2023-07-29T05:27:54;22.00;99.90
16441;DHT22;8330;-33.858;151.184;2023-07-29T05:30:25;21.90;99.90
16441;DHT22;8330;-33.858;151.184;2023-07-29T05:32:59;21.90;99.90
16441;DHT22;8330;-33.858;151.184;2023-07-29T05:35:30;21.80;99.90
16441;DHT22;8330;-33.858;151.184;2023-07-29T05:38:00;21.80;99.90
16441;DHT22;8330;-33.858;151.184;2023-07-29T05:40:33;21.70;99.90
16441;DHT22;8330;-33.858;151.184;2023-07-29T05:43:05;21.60;99.90
16441;DHT22;8330;-33.858;151.184;2023-07-29T05:45:37;21.60;99.90
16441;DHT22;8330;-33.858;151.184;2023-07-29T05:48:09;21.50;99.90
16441;DHT22;8330;-33.858;151.184;2023-07-29T05:50:40;21.50;99.90
16441;DHT22;8330;-33.858;151.184;2023-07-29T05:53:11;21.50;99.90
16441;DHT22;8330;-33.858;151.184;2023-07-29T05:55:43;21.40;99.90
16441;DHT22;8330;-33.858;151.184;2023-07-29T05:58:17;21.30;99.90
16441;DHT22;8330;-33.858;151.184;2023-07-29T06:00:48;21.40;99.90
16441;DHT22;8330;-33.858;151.184;2023-07-29T06:03:19;21.30;99.90
16441;DHT22;8330;-33.858;151.184;2023-07-29T06:05:50;21.30;99.90
16441;DHT22;8330;-33.858;151.184;2023-07-29T06:08:21;21.30;99.90
16441;DHT22;8330;-33.858;151.184;2023-07-29T06:10:56;21.30;99.90
16441;DHT22;8330;-33.858;151.184;2023-07-29T06:13:30;21.20;99.90
16441;DHT22;8330;-33.858;151.184;2023-07-29T06:16:00;21.30;99.90
16441;DHT22;8330;-33.858;151.184;2023-07-29T06:18:31;21.30;99.90
16441;DHT22;8330;-33.858;151.184;2023-07-29T06:21:03;21.30;99.90
16441;DHT22;8330;-33.858;151.184;2023-07-29T06:23:35;21.40;99.90
16441;DHT22;8330;-33.858;151.184;2023-07-29T06:26:07;21.50;99.90
16441;DHT22;8330;-33.858;151.184;2023-07-29T06:28:41;21.60;99.90
16441;DHT22;8330;-33.858;151.184;2023-07-29T06:31:12;21.70;99.90
16441;DHT22;8330;-33.858;151.184;2023-07-29T06:33:42;21.70;99.90
16441;DHT22;8330;-33.858;151.184;2023-07-29T06:36:14;21.70;99.90
16441;DHT22;8330;-33.858;151.184;2023-07-29T06:38:45;21.60;99.90
16441;DHT22;8330;-33.858;151.184;2023-07-29T06:41:16;21.60;99.90
16441;DHT22;8330;-33.858;151.184;2023-07-29T06:43:50;21.50;99.90
16441;DHT22;8330;-33.858;151.184;2023-07-29T06:46:20;21.30;99.90
16441;DHT22;8330;-33.858;151.184;2023-07-29T06:48:51;21.20;99.90
16441;DHT22;8330;-33.858;151.184;2023-07-29T06:51:22;21.10;99.90
16441;DHT22;8330;-33.858;151.184;2023-07-29T06:53:54;21.00;99.90
16441;DHT22;8330;-33.858;151.184;2023-07-29T06:56:25;21.00;99.90
16441;DHT22;8330;-33.858;151.184;2023-07-29T06:58:58;21.00;99.90
16441;DHT22;8330;-33.858;151.184;2023-07-29T07:01:29;20.80;99.90
16441;DHT22;8330;-33.858;151.184;2023-07-29T07:04:01;20.70;99.90
16441;DHT22;8330;-33.858;151.184;2023-07-29T07:06:33;20.60;99.90
16441;DHT22;8330;-33.858;151.184;2023-07-29T07:09:05;20.50;99.90
16441;DHT22;8330;-33.858;151.184;2023-07-29T07:11:37;20.60;99.90
16441;DHT22;8330;-33.858;151.184;2023-07-29T07:14:11;20.50;99.90
16441;DHT22;8330;-33.858;151.184;2023-07-29T07:16:42;20.40;99.90
16441;DHT22;8330;-33.858;151.184;2023-07-29T07:19:17;20.30;99.90
16441;DHT22;8330;-33.858;151.184;2023-07-29T07:21:48;20.20;99.90
16441;DHT22;8330;-33.858;151.184;2023-07-29T07:24:19;20.10;99.90
16441;DHT22;8330;-33.858;151.184;2023-07-29T07:26:50;20.10;99.90
16441;DHT22;8330;-33.858;151.184;2023-07-29T07:29:25;20.00;99.90
16441;DHT22;8330;-33.858;151.184;2023-07-29T07:31:58;20.00;99.90
16441;DHT22;8330;-33.858;151.184;2023-07-29T07:34:31;20.00;99.90
16441;DHT22;8330;-33.858;151.184;2023-07-29T07:37:02;19.90;99.90
16441;DHT22;8330;-33.858;151.184;2023-07-29T07:39:34;19.90;99.90
16441;DHT22;8330;-33.858;151.184;2023-07-29T07:42:08;19.80;99.90
16441;DHT22;8330;-33.858;151.184;2023-07-29T07:44:42;19.80;99.90
16441;DHT22;8330;-33.858;151.184;2023-07-29T07:47:13;19.70;99.90
16441;DHT22;8330;-33.858;151.184;2023-07-29T07:49:47;19.80;99.90
16441;DHT22;8330;-33.858;151.184;2023-07-29T07:52:18;19.70;99.90
16441;DHT22;8330;-33.858;151.184;2023-07-29T07:54:54;19.70;99.90
16441;DHT22;8330;-33.858;151.184;2023-07-29T07:57:25;19.70;99.90
16441;DHT22;8330;-33.858;151.184;2023-07-29T07:59:57;19.70;99.90
16441;DHT22;8330;-33.858;151.184;2023-07-29T08:02:28;19.60;99.90
16441;DHT22;8330;-33.858;151.184;2023-07-29T08:05:01;19.60;99.90
16441;DHT22;8330;-33.858;151.184;2023-07-29T08:07:32;19.60;99.90
16441;DHT22;8330;-33.858;151.184;2023-07-29T08:10:02;19.60;99.90
16441;DHT22;8330;-33.858;151.184;2023-07-29T08:12:33;19.50;99.90
16441;DHT22;8330;-33.858;151.184;2023-07-29T08:15:08;19.50;99.90
16441;DHT22;8330;-33.858;151.184;2023-07-29T08:17:39;19.50;99.90
16441;DHT22;8330;-33.858;151.184;2023-07-29T08:20:11;19.40;99.90
16441;DHT22;8330;-33.858;151.184;2023-07-29T08:22:44;19.40;99.90
16441;DHT22;8330;-33.858;151.184;2023-07-29T08:25:17;19.40;99.90
16441;DHT22;8330;-33.858;151.184;2023-07-29T08:27:48;19.40;99.90
16441;DHT22;8330;-33.858;151.184;2023-07-29T08:30:22;19.40;99.90
16441;DHT22;8330;-33.858;151.184;2023-07-29T08:32:53;19.40;99.90
16441;DHT22;8330;-33.858;151.184;2023-07-29T08:35:24;19.40;99.90
16441;DHT22;8330;-33.858;151.184;2023-07-29T08:37:55;19.40;99.90
16441;DHT22;8330;-33.858;151.184;2023-07-29T08:40:29;19.30;99.90
16441;DHT22;8330;-33.858;151.184;2023-07-29T08:43:02;19.30;99.90
16441;DHT22;8330;-33.858;151.184;2023-07-29T08:45:37;19.30;99.90
16441;DHT22;8330;-33.858;151.184;2023-07-29T08:48:10;19.30;99.90
16441;DHT22;8330;-33.858;151.184;2023-07-29T08:50:42;19.20;99.90
16441;DHT22;8330;-33.858;151.184;2023-07-29T08:53:15;19.20;99.90
16441;DHT22;8330;-33.858;151.184;2023-07-29T08:55:46;19.20;99.90
16441;DHT22;8330;-33.858;151.184;2023-07-29T08:58:17;19.20;99.90
16441;DHT22;8330;-33.858;151.184;2023-07-29T09:00:51;19.20;99.90
16441;DHT22;8330;-33.858;151.184;2023-07-29T09:03:22;19.20;99.90
16441;DHT22;8330;-33.858;151.184;2023-07-29T09:05:57;19.20;99.90
16441;DHT22;8330;-33.858;151.184;2023-07-29T09:08:29;19.10;99.90
16441;DHT22;8330;-33.858;151.184;2023-07-29T09:11:02;19.10;99.90
16441;DHT22;8330;-33.858;151.184;2023-07-29T09:13:34;19.20;99.90
16441;DHT22;8330;-33.858;151.184;2023-07-29T09:19:15;19.10;99.90
16441;DHT22;8330;-33.858;151.184;2023-07-29T09:21:49;19.10;99.90
16441;DHT22;8330;-33.858;151.184;2023-07-29T09:24:22;19.10;99.90
16441;DHT22;8330;-33.858;151.184;2023-07-29T09:27:00;19.10;99.90
16441;DHT22;8330;-33.858;151.184;2023-07-29T09:29:37;19.00;99.90
16441;DHT22;8330;-33.858;151.184;2023-07-29T09:32:24;19.00;99.90
16441;DHT22;8330;-33.858;151.184;2023-07-29T09:35:11;19.00;99.90
16441;DHT22;8330;-33.858;151.184;2023-07-29T09:37:48;18.90;99.90
16441;DHT22;8330;-33.858;151.184;2023-07-29T09:40:20;18.90;99.90
16441;DHT22;8330;-33.858;151.184;2023-07-29T09:43:00;18.90;99.90
16441;DHT22;8330;-33.858;151.184;2023-07-29T09:45:43;18.90;99.90
16441;DHT22;8330;-33.858;151.184;2023-07-29T09:48:24;18.90;99.90
16441;DHT22;8330;-33.858;151.184;2023-07-29T09:51:10;18.90;99.90
16441;DHT22;8330;-33.858;151.184;2023-07-29T09:53:42;18.90;99.90
16441;DHT22;8330;-33.858;151.184;2023-07-29T09:56:23;18.80;99.90
16441;DHT22;8330;-33.858;151.184;2023-07-29T09:59:01;18.90;99.90
16441;DHT22;8330;-33.858;151.184;2023-07-29T10:01:34;18.80;99.90
16441;DHT22;8330;-33.858;151.184;2023-07-29T10:04:09;18.80;99.90
16441;DHT22;8330;-33.858;151.184;2023-07-29T10:06:48;18.80;99.90
16441;DHT22;8330;-33.858;151.184;2023-07-29T10:09:23;18.80;99.90
16441;DHT22;8330;-33.858;151.184;2023-07-29T10:12:01;18.80;99.90
16441;DHT22;8330;-33.858;151.184;2023-07-29T10:14:37;18.70;99.90
16441;DHT22;8330;-33.858;151.184;2023-07-29T10:17:09;18.70;99.90
16441;DHT22;8330;-33.858;151.184;2023-07-29T10:19:41;18.70;99.90
16441;DHT22;8330;-33.858;151.184;2023-07-29T10:22:33;18.70;99.90
16441;DHT22;8330;-33.858;151.184;2023-07-29T10:25:16;18.60;99.90
16441;DHT22;8330;-33.858;151.184;2023-07-29T10:27:55;18.60;99.90
16441;DHT22;8330;-33.858;151.184;2023-07-29T10:30:33;18.60;99.90
16441;DHT22;8330;-33.858;151.184;2023-07-29T10:33:08;18.50;99.90
16441;DHT22;8330;-33.858;151.184;2023-07-29T10:35:41;18.50;99.90
16441;DHT22;8330;-33.858;151.184;2023-07-29T10:38:27;18.50;99.90
16441;DHT22;8330;-33.858;151.184;2023-07-29T10:41:06;18.50;99.90
16441;DHT22;8330;-33.858;151.184;2023-07-29T10:43:40;18.40;99.90
16441;DHT22;8330;-33.858;151.184;2023-07-29T10:46:22;18.40;99.90
16441;DHT22;8330;-33.858;151.184;2023-07-29T10:49:03;18.50;99.90
16441;DHT22;8330;-33.858;151.184;2023-07-29T10:51:46;18.50;99.90
16441;DHT22;8330;-33.858;151.184;2023-07-29T10:54:28;18.40;99.90
16441;DHT22;8330;-33.858;151.184;2023-07-29T10:57:05;18.40;99.90
16441;DHT22;8330;-33.858;151.184;2023-07-29T11:00:09;18.40;99.90
16441;DHT22;8330;-33.858;151.184;2023-07-29T11:02:40;18.30;99.90
16441;DHT22;8330;-33.858;151.184;2023-07-29T11:05:53;18.30;99.90
16441;DHT22;8330;-33.858;151.184;2023-07-29T11:08:29;18.20;99.90
16441;DHT22;8330;-33.858;151.184;2023-07-29T11:11:12;18.10;99.90
16441;DHT22;8330;-33.858;151.184;2023-07-29T11:13:43;18.10;99.90
16441;DHT22;8330;-33.858;151.184;2023-07-29T11:16:18;18.10;99.90
16441;DHT22;8330;-33.858;151.184;2023-07-29T11:18:51;18.10;99.90
16441;DHT22;8330;-33.858;151.184;2023-07-29T11:21:26;18.10;99.90
16441;DHT22;8330;-33.858;151.184;2023-07-29T11:23:59;18.10;99.90
16441;DHT22;8330;-33.858;151.184;2023-07-29T11:26:48;18.00;99.90
16441;DHT22;8330;-33.858;151.184;2023-07-29T11:29:29;18.00;99.90
16441;DHT22;8330;-33.858;151.184;2023-07-29T11:32:14;18.00;99.90
16441;DHT22;8330;-33.858;151.184;2023-07-29T11:34:50;17.90;99.90
16441;DHT22;8330;-33.858;151.184;2023-07-29T11:37:40;17.90;99.90
16441;DHT22;8330;-33.858;151.184;2023-07-29T11:40:27;17.80;99.90
16441;DHT22;8330;-33.858;151.184;2023-07-29T11:43:38;17.80;99.90
16441;DHT22;8330;-33.858;151.184;2023-07-29T11:46:20;17.70;99.90
16441;DHT22;8330;-33.858;151.184;2023-07-29T11:49:02;17.70;99.90
16441;DHT22;8330;-33.858;151.184;2023-07-29T11:51:49;17.60;99.90
16441;DHT22;8330;-33.858;151.184;2023-07-29T11:54:28;17.60;99.90
16441;DHT22;8330;-33.858;151.184;2023-07-29T11:57:10;17.60;99.90
16441;DHT22;8330;-33.858;151.184;2023-07-29T11:59:59;17.60;99.90
16441;DHT22;8330;-33.858;151.184;2023-07-29T12:02:43;17.60;99.90
16441;DHT22;8330;-33.858;151.184;2023-07-29T12:05:21;17.60;99.90
16441;DHT22;8330;-33.858;151.184;2023-07-29T12:07:57;17.60;99.90
16441;DHT22;8330;-33.858;151.184;2023-07-29T12:10:37;17.60;99.90
16441;DHT22;8330;-33.858;151.184;2023-07-29T12:13:24;17.50;99.90
16441;DHT22;8330;-33.858;151.184;2023-07-29T12:16:16;17.50;99.90
16441;DHT22;8330;-33.858;151.184;2023-07-29T12:18:53;17.50;99.90
16441;DHT22;8330;-33.858;151.184;2023-07-29T12:21:30;17.40;99.90
16441;DHT22;8330;-33.858;151.184;2023-07-29T12:24:07;17.30;99.90
16441;DHT22;8330;-33.858;151.184;2023-07-29T12:26:52;17.30;99.90
16441;DHT22;8330;-33.858;151.184;2023-07-29T12:29:32;17.30;99.90
16441;DHT22;8330;-33.858;151.184;2023-07-29T12:32:17;17.30;99.90
16441;DHT22;8330;-33.858;151.184;2023-07-29T12:34:52;17.40;99.90
16441;DHT22;8330;-33.858;151.184;2023-07-29T12:37:33;17.40;99.90
16441;DHT22;8330;-33.858;151.184;2023-07-29T12:40:26;17.30;99.90
16441;DHT22;8330;-33.858;151.184;2023-07-29T12:42:58;17.40;99.90
16441;DHT22;8330;-33.858;151.184;2023-07-29T12:45:40;17.40;99.90
16441;DHT22;8330;-33.858;151.184;2023-07-29T12:48:48;17.40;99.90
16441;DHT22;8330;-33.858;151.184;2023-07-29T12:51:29;17.50;99.90
16441;DHT22;8330;-33.858;151.184;2023-07-29T12:54:01;17.40;99.90
16441;DHT22;8330;-33.858;151.184;2023-07-29T12:56:40;17.40;99.90
16441;DHT22;8330;-33.858;151.184;2023-07-29T12:59:30;17.40;99.90
16441;DHT22;8330;-33.858;151.184;2023-07-29T13:02:04;17.30;99.90
16441;DHT22;8330;-33.858;151.184;2023-07-29T13:04:47;17.30;99.90
16441;DHT22;8330;-33.858;151.184;2023-07-29T13:07:32;17.30;99.90
16441;DHT22;8330;-33.858;151.184;2023-07-29T13:10:19;17.30;99.90
16441;DHT22;8330;-33.858;151.184;2023-07-29T13:13:03;17.40;99.90
16441;DHT22;8330;-33.858;151.184;2023-07-29T13:15:39;17.40;99.90
16441;DHT22;8330;-33.858;151.184;2023-07-29T13:18:14;17.40;99.90
16441;DHT22;8330;-33.858;151.184;2023-07-29T13:20:50;17.40;99.90
16441;DHT22;8330;-33.858;151.184;2023-07-29T13:23:37;17.40;99.90
16441;DHT22;8330;-33.858;151.184;2023-07-29T13:26:08;17.40;99.90
16441;DHT22;8330;-33.858;151.184;2023-07-29T13:28:40;17.40;99.90
16441;DHT22;8330;-33.858;151.184;2023-07-29T13:31:12;17.40;99.90
16441;DHT22;8330;-33.858;151.184;2023-07-29T13:33:42;17.40;99.90
16441;DHT22;8330;-33.858;151.184;2023-07-29T13:36:16;17.40;99.90
16441;DHT22;8330;-33.858;151.184;2023-07-29T13:38:48;17.40;99.90
16441;DHT22;8330;-33.858;151.184;2023-07-29T13:41:20;17.30;99.90
16441;DHT22;8330;-33.858;151.184;2023-07-29T13:43:52;17.30;99.90
16441;DHT22;8330;-33.858;151.184;2023-07-29T13:46:23;17.30;99.90
16441;DHT22;8330;-33.858;151.184;2023-07-29T13:48:55;17.30;99.90
16441;DHT22;8330;-33.858;151.184;2023-07-29T13:51:29;17.20;99.90
16441;DHT22;8330;-33.858;151.184;2023-07-29T13:54:00;17.20;99.90
16441;DHT22;8330;-33.858;151.184;2023-07-29T13:56:32;17.20;99.90
16441;DHT22;8330;-33.858;151.184;2023-07-29T13:59:02;17.20;99.90
16441;DHT22;8330;-33.858;151.184;2023-07-29T14:01:33;17.10;99.90
16441;DHT22;8330;-33.858;151.184;2023-07-29T14:04:05;17.10;99.90
16441;DHT22;8330;-33.858;151.184;2023-07-29T14:06:39;17.10;99.90
16441;DHT22;8330;-33.858;151.184;2023-07-29T14:09:11;17.00;99.90
16441;DHT22;8330;-33.858;151.184;2023-07-29T14:11:42;17.00;99.90
16441;DHT22;8330;-33.858;151.184;2023-07-29T14:14:13;16.90;99.90
16441;DHT22;8330;-33.858;151.184;2023-07-29T14:16:45;16.80;99.90
16441;DHT22;8330;-33.858;151.184;2023-07-29T14:19:16;16.80;99.90
16441;DHT22;8330;-33.858;151.184;2023-07-29T14:21:49;16.80;99.90
16441;DHT22;8330;-33.858;151.184;2023-07-29T14:24:20;16.80;99.90
16441;DHT22;8330;-33.858;151.184;2023-07-29T14:26:51;16.70;99.90
16441;DHT22;8330;-33.858;151.184;2023-07-29T14:29:22;16.60;99.90
16441;DHT22;8330;-33.858;151.184;2023-07-29T14:31:54;16.70;99.90
16441;DHT22;8330;-33.858;151.184;2023-07-29T14:34:25;16.60;99.90
16441;DHT22;8330;-33.858;151.184;2023-07-29T14:36:59;16.60;99.90
16441;DHT22;8330;-33.858;151.184;2023-07-29T14:39:31;16.50;99.90
16441;DHT22;8330;-33.858;151.184;2023-07-29T14:42:05;16.50;99.90
16441;DHT22;8330;-33.858;151.184;2023-07-29T14:44:43;16.50;99.90
16441;DHT22;8330;-33.858;151.184;2023-07-29T14:47:14;16.50;99.90
16441;DHT22;8330;-33.858;151.184;2023-07-29T14:49:45;16.50;99.90
16441;DHT22;8330;-33.858;151.184;2023-07-29T14:52:20;16.40;99.90
16441;DHT22;8330;-33.858;151.184;2023-07-29T14:54:51;16.40;99.90
16441;DHT22;8330;-33.858;151.184;2023-07-29T14:57:22;16.30;99.90
16441;DHT22;8330;-33.858;151.184;2023-07-29T14:59:53;16.30;99.90
16441;DHT22;8330;-33.858;151.184;2023-07-29T15:02:24;16.30;99.90
16441;DHT22;8330;-33.858;151.184;2023-07-29T15:04:58;16.30;99.90
16441;DHT22;8330;-33.858;151.184;2023-07-29T15:07:41;16.30;99.90
16441;DHT22;8330;-33.858;151.184;2023-07-29T15:10:15;16.30;99.90
16441;DHT22;8330;-33.858;151.184;2023-07-29T15:12:49;16.30;99.90
16441;DHT22;8330;-33.858;151.184;2023-07-29T15:15:21;16.30;99.90
16441;DHT22;8330;-33.858;151.184;2023-07-29T15:17:52;16.30;99.90
16441;DHT22;8330;-33.858;151.184;2023-07-29T15:20:24;16.20;99.90
16441;DHT22;8330;-33.858;151.184;2023-07-29T15:22:57;16.30;99.90
16441;DHT22;8330;-33.858;151.184;2023-07-29T15:25:29;16.20;99.90
16441;DHT22;8330;-33.858;151.184;2023-07-29T15:28:00;16.30;99.90
16441;DHT22;8330;-33.858;151.184;2023-07-29T15:30:31;16.20;99.90
16441;DHT22;8330;-33.858;151.184;2023-07-29T15:33:06;16.20;99.90
16441;DHT22;8330;-33.858;151.184;2023-07-29T15:35:38;16.20;99.90
16441;DHT22;8330;-33.858;151.184;2023-07-29T15:38:11;16.10;99.90
16441;DHT22;8330;-33.858;151.184;2023-07-29T15:40:42;16.20;99.90
16441;DHT22;8330;-33.858;151.184;2023-07-29T15:43:13;16.20;99.90
16441;DHT22;8330;-33.858;151.184;2023-07-29T15:45:46;16.10;99.90
16441;DHT22;8330;-33.858;151.184;2023-07-29T15:48:17;16.20;99.90